Time;durP1;ratioP1;P1;durP2;ratioP2;P2;SDS_P1;SDS_P2;PMS_P1;PMS_P2;Temp;Humidity;BMP_temperature;BMP_pressure;BME280_temperature;BME280_humidity;BME280_pressure;Samples;Min_cycle;Max_cycle;Signal;HPM_P1;HPM_P2
2021/07/05 00:02:23;;;;;;;1.63;1.10;;;17.00;99.70;;;;;;5050086;28;20446;-65
2021/07/05 00:04:51;;;;;;;1.37;1.00;;;17.10;99.70;;;;;;5051571;28;20456;-66
2021/07/05 00:07:20;;;;;;;1.57;1.10;;;17.00;99.70;;;;;;5033572;28;20847;-66
2021/07/05 00:09:47;;;;;;;1.50;1.07;;;17.00;99.70;;;;;;5032362;28;20471;-66
2021/07/05 00:12:14;;;;;;;1.93;1.13;;;17.00;99.70;;;;;;5049630;28;20452;-66
2021/07/05 00:14:40;;;;;;;1.70;1.20;;;16.90;99.70;;;;;;5041267;28;20442;-66
2021/07/05 00:17:07;;;;;;;1.97;1.10;;;16.90;99.70;;;;;;5047229;28;20450;-66
2021/07/05 00:19:34;;;;;;;1.30;1.00;;;16.80;99.70;;;;;;5042986;28;20490;-66
2021/07/05 00:22:02;;;;;;;2.43;1.13;;;16.80;99.70;;;;;;5032232;28;20992;-66
2021/07/05 00:24:29;;;;;;;1.40;1.10;;;16.80;99.70;;;;;;5045244;28;20457;-66
2021/07/05 00:26:56;;;;;;;1.27;0.93;;;16.80;99.70;;;;;;5051284;28;20475;-66
2021/07/05 00:29:23;;;;;;;1.70;1.30;;;16.70;99.70;;;;;;5049976;28;20476;-66
2021/07/05 00:31:49;;;;;;;1.60;1.20;;;16.70;99.70;;;;;;5051568;28;21020;-66
2021/07/05 00:34:16;;;;;;;1.80;1.20;;;16.70;99.70;;;;;;5040426;28;20455;-66
2021/07/05 00:36:43;;;;;;;1.80;1.20;;;16.70;99.70;;;;;;5045154;28;20529;-66
2021/07/05 00:39:11;;;;;;;1.30;1.00;;;16.70;99.70;;;;;;5042102;28;20488;-66
2021/07/05 00:41:38;;;;;;;3.80;1.10;;;16.70;99.70;;;;;;5042367;28;20763;-66
2021/07/05 00:44:05;;;;;;;1.70;1.20;;;16.70;99.70;;;;;;5043108;28;20452;-65
2021/07/05 00:46:32;;;;;;;2.07;1.17;;;16.70;99.70;;;;;;5041705;28;20444;-66
2021/07/05 00:48:59;;;;;;;1.47;1.00;;;16.60;99.70;;;;;;5034012;28;20464;-66
2021/07/05 00:51:26;;;;;;;1.80;1.30;;;16.70;99.70;;;;;;5040829;28;20887;-66
2021/07/05 00:53:54;;;;;;;1.60;1.20;;;16.70;99.70;;;;;;5045969;28;20467;-66
2021/07/05 00:56:23;;;;;;;1.87;1.30;;;16.60;99.70;;;;;;5039347;28;20456;-66
2021/07/05 00:58:50;;;;;;;1.77;1.40;;;16.60;99.70;;;;;;5046648;28;20480;-66
2021/07/05 01:01:17;;;;;;;1.40;1.13;;;16.60;99.70;;;;;;5033411;28;20443;-66
2021/07/05 01:03:44;;;;;;;1.57;1.20;;;16.60;99.70;;;;;;5042820;28;20498;-66
2021/07/05 01:06:11;;;;;;;1.33;1.10;;;16.60;99.70;;;;;;5050443;28;20454;-66
2021/07/05 01:08:38;;;;;;;1.50;1.10;;;16.60;99.70;;;;;;5049281;28;20459;-66
2021/07/05 01:11:05;;;;;;;6.63;1.43;;;16.70;99.70;;;;;;5031240;28;21070;-66
2021/07/05 01:13:34;;;;;;;2.10;1.30;;;16.70;99.70;;;;;;5031222;28;20447;-66
2021/07/05 01:16:02;;;;;;;1.67;1.30;;;16.60;99.70;;;;;;5049899;28;20452;-67
2021/07/05 01:18:28;;;;;;;1.30;1.10;;;16.60;99.70;;;;;;5034016;28;20480;-66
2021/07/05 01:20:59;;;;;;;2.20;1.50;;;16.60;99.70;;;;;;5035849;28;20448;-66
2021/07/05 01:23:26;;;;;;;1.40;1.10;;;16.60;99.70;;;;;;5035070;28;20841;-66
2021/07/05 01:25:53;;;;;;;1.30;1.00;;;16.50;99.70;;;;;;5035371;28;20451;-66
2021/07/05 01:28:19;;;;;;;2.70;1.30;;;16.50;99.70;;;;;;5044159;28;20860;-66
2021/07/05 01:30:46;;;;;;;1.77;1.20;;;16.60;99.70;;;;;;5030824;28;20803;-66
2021/07/05 01:33:14;;;;;;;1.77;1.30;;;16.60;99.70;;;;;;5043120;28;20451;-66
2021/07/05 01:35:41;;;;;;;1.40;1.03;;;16.60;99.70;;;;;;5045152;28;20449;-66
2021/07/05 01:38:13;;;;;;;1.50;1.00;;;16.70;99.70;;;;;;5042038;28;20798;-66
2021/07/05 01:40:42;;;;;;;2.43;1.40;;;16.70;99.70;;;;;;5050218;28;20505;-66
2021/07/05 01:43:08;;;;;;;2.13;1.30;;;16.70;99.70;;;;;;5048854;28;21158;-66
2021/07/05 01:45:35;;;;;;;1.40;1.20;;;16.70;99.70;;;;;;5049898;28;20444;-66
2021/07/05 01:48:03;;;;;;;1.70;1.20;;;16.70;99.70;;;;;;5049795;28;20448;-66
2021/07/05 01:50:30;;;;;;;1.70;1.23;;;16.70;99.70;;;;;;5049995;28;20474;-66
2021/07/05 01:52:58;;;;;;;1.40;1.10;;;16.80;99.70;;;;;;5049341;28;20463;-66
2021/07/05 01:55:30;;;;;;;1.90;1.20;;;16.80;99.70;;;;;;5048850;28;20450;-66
2021/07/05 01:57:58;;;;;;;1.70;1.17;;;16.80;99.70;;;;;;5039842;28;20969;-66
2021/07/05 02:00:24;;;;;;;2.50;1.10;;;16.80;99.70;;;;;;5030904;28;20485;-66
2021/07/05 02:02:53;;;;;;;1.50;1.10;;;16.80;99.70;;;;;;5040477;28;20451;-66
2021/07/05 02:05:20;;;;;;;2.00;1.10;;;16.80;99.70;;;;;;5049409;28;20444;-67
2021/07/05 02:07:48;;;;;;;1.60;1.20;;;16.80;99.70;;;;;;5042274;28;20995;-66
2021/07/05 02:10:19;;;;;;;1.63;1.23;;;16.70;99.70;;;;;;5047807;28;20468;-66
2021/07/05 02:12:47;;;;;;;1.60;1.20;;;16.70;99.70;;;;;;5030570;28;20451;-66
2021/07/05 02:15:15;;;;;;;1.40;1.00;;;16.60;99.70;;;;;;5029674;28;20449;-66
2021/07/05 02:17:43;;;;;;;1.50;1.20;;;16.60;99.70;;;;;;5050132;28;20458;-66
2021/07/05 02:20:13;;;;;;;1.40;1.10;;;16.60;99.70;;;;;;5048057;28;20486;-66
2021/07/05 02:22:40;;;;;;;1.73;1.30;;;16.60;99.70;;;;;;5047858;28;20455;-67
2021/07/05 02:25:09;;;;;;;1.83;1.23;;;16.60;99.70;;;;;;5032786;28;20456;-66
2021/07/05 02:27:35;;;;;;;1.70;1.10;;;16.50;99.70;;;;;;5044161;28;20445;-66
2021/07/05 02:30:06;;;;;;;1.70;1.20;;;16.50;99.70;;;;;;5029916;28;20858;-66
2021/07/05 02:32:33;;;;;;;1.80;1.20;;;16.50;99.70;;;;;;5047537;28;21050;-66
2021/07/05 02:34:59;;;;;;;2.17;1.20;;;16.50;99.70;;;;;;5049529;28;20448;-66
2021/07/05 02:37:26;;;;;;;1.50;1.20;;;16.50;99.70;;;;;;5040403;28;20449;-66
2021/07/05 02:39:53;;;;;;;1.83;1.30;;;16.40;99.70;;;;;;5029805;28;20889;-66
2021/07/05 02:42:20;;;;;;;1.97;1.40;;;16.40;99.70;;;;;;5044188;28;20450;-66
2021/07/05 02:44:46;;;;;;;1.50;1.10;;;16.50;99.70;;;;;;5049741;28;20481;-66
2021/07/05 02:47:14;;;;;;;1.73;1.10;;;16.50;99.70;;;;;;5048573;28;20454;-66
2021/07/05 02:49:41;;;;;;;2.67;1.20;;;16.40;99.70;;;;;;5049220;28;20837;-66
2021/07/05 02:52:08;;;;;;;2.00;1.10;;;16.40;99.70;;;;;;5035539;28;20467;-66
2021/07/05 02:54:35;;;;;;;1.50;1.10;;;16.40;99.70;;;;;;5029500;28;20451;-66
2021/07/05 02:57:01;;;;;;;2.07;1.37;;;16.40;99.70;;;;;;5031202;28;20448;-66
2021/07/05 02:59:28;;;;;;;1.70;1.20;;;16.40;99.70;;;;;;5029892;28;20489;-66
2021/07/05 03:01:55;;;;;;;1.50;1.10;;;16.40;99.70;;;;;;5034097;28;20447;-66
2021/07/05 03:04:23;;;;;;;2.20;1.20;;;16.40;99.70;;;;;;5044079;28;20441;-66
2021/07/05 03:06:50;;;;;;;2.73;1.30;;;16.40;99.70;;;;;;5034723;28;20468;-66
2021/07/05 03:09:16;;;;;;;2.97;1.83;;;16.50;99.70;;;;;;5033727;28;20464;-66
2021/07/05 03:11:43;;;;;;;2.33;1.37;;;16.50;99.70;;;;;;5049170;28;20451;-66
2021/07/05 03:14:10;;;;;;;2.33;1.40;;;16.50;99.70;;;;;;5045675;28;20956;-66
2021/07/05 03:16:36;;;;;;;1.60;1.20;;;16.50;99.70;;;;;;5040597;28;20454;-66
2021/07/05 03:19:03;;;;;;;1.53;1.20;;;16.50;99.70;;;;;;5045033;28;20491;-66
2021/07/05 03:21:31;;;;;;;1.53;1.27;;;16.40;99.70;;;;;;5052898;28;20452;-66
2021/07/05 03:23:58;;;;;;;1.63;1.30;;;16.50;99.70;;;;;;5052269;28;20944;-66
2021/07/05 03:26:25;;;;;;;2.10;1.70;;;16.40;99.70;;;;;;5033232;28;20445;-67
2021/07/05 03:28:52;;;;;;;1.50;1.20;;;16.40;99.70;;;;;;5048130;28;20483;-66
2021/07/05 03:31:18;;;;;;;1.63;1.27;;;16.40;99.70;;;;;;5051178;28;20447;-66
2021/07/05 03:33:46;;;;;;;2.13;1.30;;;16.40;99.70;;;;;;5053149;28;20447;-66
2021/07/05 03:36:12;;;;;;;2.47;1.63;;;16.40;99.70;;;;;;5049905;28;20443;-66
2021/07/05 03:38:40;;;;;;;2.40;1.47;;;16.40;99.70;;;;;;5050898;28;20478;-66
2021/07/05 03:41:07;;;;;;;2.30;1.47;;;16.40;99.70;;;;;;5036795;28;20879;-66
2021/07/05 03:43:34;;;;;;;1.33;1.07;;;16.40;99.70;;;;;;5044758;28;20449;-66
2021/07/05 03:46:00;;;;;;;2.53;1.40;;;16.40;99.70;;;;;;5038169;28;20912;-66
2021/07/05 03:48:27;;;;;;;1.50;1.20;;;16.50;99.70;;;;;;5032827;28;20467;-66
2021/07/05 03:50:54;;;;;;;1.90;1.33;;;16.30;99.70;;;;;;5044969;28;20440;-66
2021/07/05 03:53:21;;;;;;;1.60;1.10;;;16.30;99.70;;;;;;5051323;28;20440;-66
2021/07/05 03:55:49;;;;;;;1.70;1.20;;;16.40;99.70;;;;;;5041065;28;20448;-66
2021/07/05 03:58:16;;;;;;;2.13;1.57;;;16.30;99.70;;;;;;5039743;28;20455;-67
2021/07/05 04:00:44;;;;;;;1.90;1.30;;;16.30;99.70;;;;;;5052106;28;20486;-66
2021/07/05 04:03:11;;;;;;;5.20;1.30;;;16.30;99.70;;;;;;5051718;28;20450;-66
2021/07/05 04:05:38;;;;;;;2.40;1.40;;;16.30;99.70;;;;;;5050625;28;20443;-66
2021/07/05 04:08:05;;;;;;;1.87;1.20;;;16.30;99.70;;;;;;5036755;28;20474;-66
2021/07/05 04:10:32;;;;;;;2.07;1.37;;;16.20;99.70;;;;;;5051893;28;20444;-66
2021/07/05 04:13:04;;;;;;;2.33;1.40;;;16.20;99.70;;;;;;5051810;28;20452;-67
2021/07/05 04:15:31;;;;;;;2.10;1.20;;;16.20;99.70;;;;;;5050853;28;20501;-66
2021/07/05 04:17:57;;;;;;;1.83;1.33;;;16.30;99.70;;;;;;5048390;28;20760;-66
2021/07/05 04:20:25;;;;;;;2.00;1.40;;;16.20;99.70;;;;;;5035444;28;20479;-65
2021/07/05 04:22:52;;;;;;;1.80;1.23;;;16.30;99.70;;;;;;5046548;28;20448;-65
2021/07/05 04:25:21;;;;;;;1.73;1.30;;;16.20;99.70;;;;;;5046718;28;20966;-65
2021/07/05 04:27:48;;;;;;;3.43;1.40;;;16.30;99.70;;;;;;5027038;28;20452;-65
2021/07/05 04:30:17;;;;;;;1.50;1.20;;;16.30;99.70;;;;;;5037274;28;20460;-66
2021/07/05 04:32:45;;;;;;;3.10;1.30;;;16.40;99.70;;;;;;5032659;28;20441;-67
2021/07/05 04:35:14;;;;;;;1.80;1.27;;;16.40;99.70;;;;;;5032173;28;20449;-67
2021/07/05 04:37:41;;;;;;;2.00;1.53;;;16.40;99.70;;;;;;5032661;28;20810;-66
2021/07/05 04:40:10;;;;;;;2.27;1.40;;;16.50;99.70;;;;;;5042646;28;20480;-67
2021/07/05 04:42:37;;;;;;;3.83;1.30;;;16.30;99.70;;;;;;5051078;28;20448;-66
2021/07/05 04:45:06;;;;;;;2.50;1.50;;;16.30;99.70;;;;;;5040341;28;20916;-67
2021/07/05 04:47:34;;;;;;;2.63;1.50;;;16.40;99.70;;;;;;5042061;28;20452;-67
2021/07/05 04:50:01;;;;;;;2.60;1.60;;;16.40;99.70;;;;;;5039491;28;20989;-67
2021/07/05 04:52:28;;;;;;;2.40;1.47;;;16.40;99.70;;;;;;5042847;28;20437;-66
2021/07/05 04:54:54;;;;;;;4.60;1.57;;;16.40;99.70;;;;;;5041280;28;20459;-65
2021/07/05 04:57:21;;;;;;;4.07;1.80;;;16.40;99.70;;;;;;5038748;28;20543;-66
2021/07/05 04:59:48;;;;;;;2.87;1.50;;;16.50;99.70;;;;;;5036258;28;21097;-66
2021/07/05 05:02:15;;;;;;;1.77;1.40;;;16.60;99.70;;;;;;5042732;28;20505;-66
2021/07/05 05:04:43;;;;;;;1.83;1.50;;;16.70;99.70;;;;;;5045113;28;20539;-66
2021/07/05 05:07:10;;;;;;;2.27;1.40;;;16.70;99.70;;;;;;5045023;28;20453;-66
2021/07/05 05:09:37;;;;;;;1.77;1.37;;;16.80;99.70;;;;;;5034620;28;20483;-66
2021/07/05 05:12:04;;;;;;;2.17;1.40;;;16.90;99.70;;;;;;5025644;28;20455;-66
2021/07/05 05:14:31;;;;;;;2.50;1.70;;;17.00;99.70;;;;;;5032044;28;20448;-67
2021/07/05 05:16:58;;;;;;;2.13;1.40;;;17.00;99.70;;;;;;5049798;28;20444;-67
2021/07/05 05:19:24;;;;;;;1.90;1.40;;;17.10;99.70;;;;;;5029377;28;20476;-66
2021/07/05 05:21:52;;;;;;;2.00;1.40;;;17.20;99.70;;;;;;5029879;28;20440;-66
2021/07/05 05:24:19;;;;;;;2.10;1.20;;;17.20;99.70;;;;;;5049001;28;20439;-66
2021/07/05 05:26:46;;;;;;;4.03;1.30;;;17.20;99.70;;;;;;5049808;28;20428;-67
2021/07/05 05:29:12;;;;;;;2.40;1.60;;;17.20;99.70;;;;;;5032915;28;20564;-66
2021/07/05 05:31:39;;;;;;;1.90;1.40;;;17.20;99.70;;;;;;5030693;28;20444;-66
2021/07/05 05:34:06;;;;;;;2.00;1.20;;;17.20;99.70;;;;;;5046248;28;20827;-65
2021/07/05 05:36:33;;;;;;;4.13;2.13;;;17.30;99.70;;;;;;5048517;28;20440;-67
2021/07/05 05:39:01;;;;;;;2.00;1.60;;;17.30;99.70;;;;;;5037216;28;20476;-66
2021/07/05 05:41:28;;;;;;;1.63;1.30;;;17.40;99.70;;;;;;5040470;28;20492;-66
2021/07/05 05:43:59;;;;;;;4.10;1.43;;;17.50;99.70;;;;;;5034707;28;20460;-67
2021/07/05 05:46:27;;;;;;;3.77;1.30;;;17.60;99.70;;;;;;5044006;28;21012;-66
2021/07/05 05:48:55;;;;;;;2.10;1.40;;;17.60;99.70;;;;;;5048048;28;20475;-66
2021/07/05 05:51:26;;;;;;;2.30;1.50;;;17.60;99.70;;;;;;5050949;28;20517;-66
2021/07/05 05:53:53;;;;;;;3.63;1.83;;;17.60;99.70;;;;;;5044392;28;20869;-66
2021/07/05 05:56:21;;;;;;;3.53;1.63;;;17.60;99.70;;;;;;5048616;28;20447;-66
2021/07/05 05:58:48;;;;;;;1.83;1.30;;;17.60;99.70;;;;;;5029603;28;20460;-66
2021/07/05 06:01:14;;;;;;;1.67;1.40;;;17.60;99.70;;;;;;5030315;28;20880;-66
2021/07/05 06:03:41;;;;;;;3.07;1.60;;;17.60;99.70;;;;;;5030256;28;20878;-66
2021/07/05 06:06:08;;;;;;;1.70;1.27;;;17.60;99.70;;;;;;5030203;28;20441;-66
2021/07/05 06:08:34;;;;;;;2.40;1.57;;;17.60;99.70;;;;;;5048541;28;20668;-66
2021/07/05 06:11:01;;;;;;;2.13;1.60;;;17.60;99.70;;;;;;5039665;28;20800;-66
2021/07/05 06:13:29;;;;;;;1.60;1.20;;;17.60;99.70;;;;;;5029758;28;20991;-66
2021/07/05 06:15:56;;;;;;;3.10;1.50;;;17.50;99.70;;;;;;5037962;28;20458;-66
2021/07/05 06:18:23;;;;;;;1.80;1.40;;;17.50;99.70;;;;;;5050025;28;20847;-66
2021/07/05 06:20:49;;;;;;;1.97;1.37;;;17.60;99.70;;;;;;5042274;28;20953;-66
2021/07/05 06:23:22;;;;;;;1.87;1.33;;;17.50;99.70;;;;;;5030242;28;20854;-66
2021/07/05 06:25:48;;;;;;;3.03;1.23;;;17.50;99.70;;;;;;5043344;28;20458;-65
2021/07/05 06:28:17;;;;;;;1.77;1.30;;;17.60;99.70;;;;;;5049740;28;20494;-66
2021/07/05 06:30:45;;;;;;;2.47;1.77;;;17.60;99.70;;;;;;5038245;28;20452;-66
2021/07/05 06:33:12;;;;;;;1.70;1.20;;;17.70;99.70;;;;;;5047248;28;20443;-66
2021/07/05 06:35:39;;;;;;;1.73;1.27;;;17.70;99.70;;;;;;5038312;28;20441;-66
2021/07/05 06:38:06;;;;;;;2.20;1.47;;;17.60;99.70;;;;;;5029823;28;20531;-66
2021/07/05 06:40:32;;;;;;;2.43;1.40;;;17.60;99.70;;;;;;5039025;28;20904;-66
2021/07/05 06:43:00;;;;;;;2.13;1.50;;;17.60;99.70;;;;;;5049521;28;20444;-66
2021/07/05 06:45:27;;;;;;;1.60;1.20;;;17.60;99.70;;;;;;5043672;28;20440;-66
2021/07/05 06:47:55;;;;;;;1.70;1.23;;;17.60;99.70;;;;;;5030767;28;20460;-66
2021/07/05 06:50:23;;;;;;;2.17;1.30;;;17.60;99.70;;;;;;5033725;28;20467;-67
2021/07/05 06:52:49;;;;;;;1.70;1.30;;;17.60;99.70;;;;;;5041928;28;20448;-66
2021/07/05 06:55:16;;;;;;;1.73;1.37;;;17.70;99.70;;;;;;5033521;28;20855;-66
2021/07/05 06:57:43;;;;;;;1.97;1.40;;;17.70;99.70;;;;;;5039971;28;20443;-67
2021/07/05 07:00:12;;;;;;;4.73;1.60;;;17.70;99.70;;;;;;5053017;28;20463;-66
2021/07/05 07:02:40;;;;;;;2.13;1.50;;;17.70;99.70;;;;;;5048333;28;20932;-66
2021/07/05 07:05:11;;;;;;;2.33;1.60;;;17.70;99.70;;;;;;5033395;28;20830;-66
2021/07/05 07:07:38;;;;;;;2.23;1.77;;;17.70;99.70;;;;;;5038192;28;20881;-66
2021/07/05 07:10:06;;;;;;;2.80;1.57;;;17.80;99.70;;;;;;5043538;28;20471;-66
2021/07/05 07:12:34;;;;;;;1.63;1.30;;;17.80;99.70;;;;;;5042589;28;20495;-66
2021/07/05 07:15:01;;;;;;;2.23;1.50;;;17.80;99.70;;;;;;5046557;28;20875;-66
2021/07/05 07:17:31;;;;;;;1.97;1.40;;;17.90;99.70;;;;;;5052809;28;20448;-66
2021/07/05 07:19:58;;;;;;;3.30;1.30;;;18.00;99.70;;;;;;5039490;28;20563;-66
2021/07/05 07:22:26;;;;;;;2.40;1.30;;;18.00;99.70;;;;;;5031928;28;20483;-66
2021/07/05 07:24:53;;;;;;;1.90;1.47;;;18.00;99.70;;;;;;5043849;28;20451;-66
2021/07/05 07:27:20;;;;;;;2.03;1.37;;;18.00;99.70;;;;;;5052784;28;20466;-66
2021/07/05 07:29:46;;;;;;;2.03;1.30;;;18.00;99.70;;;;;;5043474;28;20471;-66
2021/07/05 07:32:13;;;;;;;1.77;1.30;;;17.90;99.70;;;;;;5050266;28;20455;-65
2021/07/05 07:34:40;;;;;;;3.03;1.90;;;18.00;99.70;;;;;;5045965;28;20968;-66
2021/07/05 07:37:08;;;;;;;1.83;1.40;;;18.10;99.70;;;;;;5038387;28;20821;-66
2021/07/05 07:39:38;;;;;;;3.63;1.93;;;18.20;99.70;;;;;;5038591;28;20471;-66
2021/07/05 07:42:05;;;;;;;2.37;1.50;;;18.20;99.70;;;;;;5052556;28;20483;-66
2021/07/05 07:44:33;;;;;;;2.13;1.40;;;18.10;99.70;;;;;;5046928;28;20949;-66
2021/07/05 07:47:00;;;;;;;1.97;1.30;;;18.10;99.70;;;;;;5033375;28;20441;-66
2021/07/05 07:49:27;;;;;;;2.10;1.40;;;18.30;99.70;;;;;;5048824;28;21007;-66
2021/07/05 07:51:54;;;;;;;3.40;1.40;;;18.30;99.70;;;;;;5046081;28;20960;-66
2021/07/05 07:54:21;;;;;;;2.77;1.40;;;18.30;99.70;;;;;;5039744;28;20459;-66
2021/07/05 07:56:49;;;;;;;2.70;1.70;;;18.40;99.70;;;;;;5032731;28;20995;-66
2021/07/05 07:59:15;;;;;;;2.00;1.47;;;18.40;99.70;;;;;;5031834;28;20534;-66
2021/07/05 08:01:42;;;;;;;1.67;1.30;;;18.40;99.70;;;;;;5051875;28;20486;-66
2021/07/05 08:04:09;;;;;;;2.17;1.33;;;18.40;99.70;;;;;;5051351;28;20829;-64
2021/07/05 08:06:36;;;;;;;2.30;1.30;;;18.50;99.70;;;;;;5046779;28;20466;-66
2021/07/05 08:09:04;;;;;;;1.93;1.30;;;18.50;99.70;;;;;;5050857;28;20482;-66
2021/07/05 08:11:32;;;;;;;2.23;1.30;;;18.60;99.70;;;;;;5047781;28;20479;-66
2021/07/05 08:14:01;;;;;;;2.00;1.27;;;18.50;99.70;;;;;;5051559;28;20498;-66
2021/07/05 08:16:29;;;;;;;2.27;1.30;;;18.50;99.70;;;;;;5052196;28;20447;-66
2021/07/05 08:18:56;;;;;;;1.73;1.43;;;18.60;99.70;;;;;;5052548;28;20467;-66
2021/07/05 08:21:22;;;;;;;1.90;1.50;;;18.40;99.70;;;;;;5051921;28;20873;-66
2021/07/05 08:23:49;;;;;;;2.53;1.40;;;18.30;99.70;;;;;;5052380;28;20643;-66
2021/07/05 08:26:18;;;;;;;2.90;1.40;;;18.30;99.70;;;;;;5051665;28;20452;-67
2021/07/05 08:28:45;;;;;;;1.80;1.33;;;18.30;99.70;;;;;;5052039;28;20479;-66
2021/07/05 08:31:13;;;;;;;1.63;1.30;;;18.40;99.70;;;;;;5051872;28;20446;-66
2021/07/05 08:33:40;;;;;;;1.53;1.27;;;18.40;99.70;;;;;;5040428;28;21035;-66
2021/07/05 08:36:07;;;;;;;1.80;1.30;;;18.50;99.70;;;;;;5040150;28;20452;-66
2021/07/05 08:38:34;;;;;;;2.53;1.23;;;18.40;99.70;;;;;;5031860;28;20472;-66
2021/07/05 08:41:02;;;;;;;2.67;1.50;;;18.40;99.70;;;;;;5031935;28;21055;-66
2021/07/05 08:43:30;;;;;;;2.17;1.40;;;18.40;99.70;;;;;;5037584;28;20518;-66
2021/07/05 08:46:01;;;;;;;2.23;1.40;;;18.40;99.70;;;;;;5051465;28;20479;-66
2021/07/05 08:48:34;;;;;;;1.70;1.30;;;18.40;99.70;;;;;;5051812;28;20475;-66
2021/07/05 08:51:02;;;;;;;2.40;1.40;;;18.40;99.70;;;;;;5051623;28;20447;-66
2021/07/05 08:53:29;;;;;;;2.13;1.40;;;18.40;99.70;;;;;;5051921;28;20456;-66
2021/07/05 08:55:56;;;;;;;1.97;1.40;;;18.40;99.70;;;;;;5051483;28;20502;-66
2021/07/05 08:58:23;;;;;;;3.27;1.60;;;18.40;99.70;;;;;;5051272;28;21163;-66
2021/07/05 09:00:50;;;;;;;2.10;1.57;;;18.40;99.70;;;;;;5051541;28;20439;-66
2021/07/05 09:03:22;;;;;;;1.90;1.30;;;18.30;99.70;;;;;;5051381;28;20455;-66
2021/07/05 09:08:44;;;;;;;2.10;1.50;;;18.40;99.70;;;;;;5128372;27;20578;-66
2021/07/05 09:11:16;;;;;;;1.90;1.40;;;18.40;99.70;;;;;;5128591;27;20450;-66
2021/07/05 09:13:50;;;;;;;1.70;1.17;;;18.50;99.70;;;;;;5127094;27;20822;-66
2021/07/05 09:16:32;;;;;;;2.90;1.20;;;18.50;99.70;;;;;;5128239;27;20466;-66
2021/07/05 09:19:01;;;;;;;2.20;1.30;;;18.50;99.70;;;;;;5128173;27;20468;-66
2021/07/05 09:21:29;;;;;;;2.23;1.43;;;18.50;99.70;;;;;;5128208;27;20436;-66
2021/07/05 09:24:00;;;;;;;1.80;1.50;;;18.60;99.70;;;;;;5127905;27;20448;-66
2021/07/05 09:26:31;;;;;;;1.97;1.50;;;18.60;99.70;;;;;;5128229;27;20686;-66
2021/07/05 09:28:59;;;;;;;1.73;1.33;;;18.70;99.70;;;;;;5128143;27;20465;-67
2021/07/05 09:31:53;;;;;;;2.87;1.50;;;18.70;99.70;;;;;;5128114;27;20436;-66
2021/07/05 09:34:22;;;;;;;2.43;1.60;;;18.60;99.70;;;;;;5125333;27;20946;-66
2021/07/05 09:36:51;;;;;;;2.40;1.70;;;18.60;99.70;;;;;;5128109;27;20501;-67
2021/07/05 09:39:22;;;;;;;2.07;1.53;;;18.50;99.70;;;;;;5127524;27;20456;-66
2021/07/05 09:41:52;;;;;;;1.73;1.23;;;18.40;99.70;;;;;;5121246;27;20492;-66
2021/07/05 09:44:22;;;;;;;1.70;1.30;;;18.40;99.70;;;;;;5127378;27;20447;-66
2021/07/05 09:46:51;;;;;;;2.10;1.50;;;18.30;99.70;;;;;;5127796;27;20994;-66
2021/07/05 09:49:25;;;;;;;2.10;1.30;;;18.30;99.70;;;;;;5114432;27;20855;-66
2021/07/05 09:52:14;;;;;;;1.60;1.30;;;18.40;99.70;;;;;;5127839;27;20828;-67
2021/07/05 09:54:44;;;;;;;2.03;1.20;;;18.30;99.70;;;;;;5106900;27;20742;-66
2021/07/05 09:57:27;;;;;;;1.67;1.17;;;18.30;99.70;;;;;;5107217;28;20457;-66
2021/07/05 09:59:56;;;;;;;1.53;1.20;;;18.30;99.70;;;;;;5126138;28;20544;-66
2021/07/05 10:02:23;;;;;;;1.83;1.20;;;18.30;99.70;;;;;;5127536;27;20471;-66
2021/07/05 10:04:49;;;;;;;1.40;1.10;;;18.30;99.70;;;;;;5126967;27;20436;-66
2021/07/05 10:07:17;;;;;;;1.30;1.10;;;18.40;99.70;;;;;;5127069;27;21028;-66
2021/07/05 10:09:47;;;;;;;1.53;1.20;;;18.40;99.70;;;;;;5113648;27;20472;-66
2021/07/05 10:12:20;;;;;;;1.40;1.20;;;18.40;99.70;;;;;;5106339;28;20940;-66
2021/07/05 10:15:03;;;;;;;3.33;1.47;;;18.30;99.70;;;;;;5105685;28;20823;-66
2021/07/05 10:17:32;;;;;;;2.50;1.40;;;18.30;99.70;;;;;;5106828;28;20488;-66
2021/07/05 10:20:00;;;;;;;1.50;1.20;;;18.10;99.70;;;;;;5093310;28;20462;-66
2021/07/05 10:22:27;;;;;;;1.93;1.27;;;18.10;99.70;;;;;;5097258;28;20433;-66
2021/07/05 10:24:56;;;;;;;1.93;1.20;;;18.10;99.70;;;;;;5111226;28;20502;-66
2021/07/05 10:27:23;;;;;;;1.50;1.20;;;18.10;99.70;;;;;;5102872;28;20473;-66
2021/07/05 10:29:51;;;;;;;2.10;1.40;;;18.00;99.70;;;;;;5092769;28;20462;-66
2021/07/05 10:32:19;;;;;;;2.37;1.37;;;18.00;99.70;;;;;;5092728;28;20469;-66
2021/07/05 10:34:51;;;;;;;1.73;1.23;;;18.00;99.70;;;;;;5092605;28;20446;-66
2021/07/05 10:37:25;;;;;;;1.50;1.07;;;18.00;99.70;;;;;;5095042;28;20449;-67
2021/07/05 10:39:52;;;;;;;1.60;1.20;;;18.00;99.70;;;;;;5098055;28;20474;-66
2021/07/05 10:42:31;;;;;;;2.40;1.40;;;18.00;99.70;;;;;;5107203;28;20448;-66
2021/07/05 10:44:58;;;;;;;1.70;1.23;;;18.00;99.70;;;;;;5100251;28;20764;-66
2021/07/05 10:47:45;;;;;;;2.80;1.60;;;18.00;99.70;;;;;;5097705;28;20485;-66
2021/07/05 10:50:45;;;;;;;2.10;1.27;;;18.00;99.70;;;;;;5092386;28;20462;-66
2021/07/05 10:53:15;;;;;;;1.77;1.33;;;18.00;99.70;;;;;;5097592;28;20931;-66
2021/07/05 10:55:44;;;;;;;2.37;1.40;;;18.10;99.70;;;;;;5096231;28;20788;-66
2021/07/05 10:58:21;;;;;;;1.40;1.20;;;18.20;99.70;;;;;;5092213;28;20438;-66
2021/07/05 11:00:49;;;;;;;1.80;1.37;;;18.20;99.70;;;;;;5099977;28;20466;-66
2021/07/05 11:03:47;;;;;;;2.10;1.83;;;18.20;99.70;;;;;;5096537;28;20449;-66
2021/07/05 11:06:45;;;;;;;2.30;1.40;;;18.20;99.70;;;;;;5095684;28;20506;-66
2021/07/05 11:09:18;;;;;;;2.10;1.30;;;18.40;99.70;;;;;;5095727;28;20482;-66
2021/07/05 11:11:48;;;;;;;1.90;1.27;;;18.40;99.70;;;;;;5099625;28;20450;-66
2021/07/05 11:14:20;;;;;;;1.93;1.30;;;18.30;99.70;;;;;;5103543;28;20443;-66
2021/07/05 11:17:00;;;;;;;3.07;1.40;;;18.40;99.70;;;;;;5109587;28;20450;-66
2021/07/05 11:19:41;;;;;;;2.60;1.30;;;18.50;99.70;;;;;;5093753;28;20477;-66
2021/07/05 11:22:23;;;;;;;3.47;1.40;;;18.50;99.70;;;;;;5088303;28;22258;-66
2021/07/05 11:24:53;;;;;;;1.70;1.20;;;18.60;99.70;;;;;;5096836;28;20453;-66
2021/07/05 11:27:28;;;;;;;1.70;1.20;;;18.70;99.70;;;;;;5091350;28;20478;-66
2021/07/05 11:30:10;;;;;;;1.77;1.13;;;18.80;99.70;;;;;;5094981;28;20468;-66
2021/07/05 11:32:38;;;;;;;1.90;1.50;;;18.80;99.70;;;;;;5108526;28;20445;-66
2021/07/05 11:35:26;;;;;;;1.40;1.20;;;19.00;99.70;;;;;;5107848;28;20445;-66
2021/07/05 11:37:54;;;;;;;1.70;1.30;;;19.00;99.70;;;;;;5105212;28;20437;-66
2021/07/05 11:40:40;;;;;;;1.70;1.27;;;19.10;99.70;;;;;;5093286;28;20458;-66
2021/07/05 11:43:07;;;;;;;1.60;1.07;;;19.20;99.70;;;;;;5110427;28;20864;-66
2021/07/05 11:45:56;;;;;;;1.93;1.20;;;19.20;99.70;;;;;;5107628;28;20986;-66
2021/07/05 11:48:52;;;;;;;2.30;1.20;;;19.10;99.70;;;;;;5096553;28;20492;-66
2021/07/05 11:51:20;;;;;;;1.40;1.17;;;19.00;99.70;;;;;;5111444;28;20441;-66
2021/07/05 11:53:51;;;;;;;5.30;1.87;;;18.90;99.70;;;;;;5103438;28;20455;-66
2021/07/05 11:56:43;;;;;;;1.80;1.37;;;18.80;99.70;;;;;;5108460;28;20441;-66
2021/07/05 11:59:12;;;;;;;1.67;1.10;;;18.70;99.70;;;;;;5101642;28;20502;-66
2021/07/05 12:01:42;;;;;;;1.93;1.30;;;18.80;99.70;;;;;;5090657;28;20438;-66
2021/07/05 12:04:10;;;;;;;2.43;1.57;;;18.90;99.70;;;;;;5090311;28;20467;-66
2021/07/05 12:06:37;;;;;;;5.13;1.37;;;19.00;99.70;;;;;;5090582;28;20454;-66
2021/07/05 12:09:07;;;;;;;1.70;1.40;;;19.10;99.70;;;;;;5090623;28;20493;-66
2021/07/05 12:11:36;;;;;;;2.37;1.47;;;19.10;99.70;;;;;;5090790;28;20641;-66
2021/07/05 12:14:10;;;;;;;1.90;1.30;;;19.10;99.70;;;;;;5090707;28;20453;-66
2021/07/05 12:16:37;;;;;;;2.17;1.50;;;19.10;99.70;;;;;;5090892;28;20457;-66
2021/07/05 12:19:09;;;;;;;2.00;1.30;;;19.00;99.70;;;;;;5091191;28;20462;-66
2021/07/05 12:21:37;;;;;;;1.90;1.40;;;19.10;99.70;;;;;;5090801;28;20513;-66
2021/07/05 12:24:09;;;;;;;3.20;1.60;;;19.10;99.70;;;;;;5090894;28;20941;-65
2021/07/05 12:26:42;;;;;;;2.80;1.53;;;19.20;99.70;;;;;;5090721;28;20457;-66
2021/07/05 12:29:12;;;;;;;3.77;1.87;;;19.30;99.70;;;;;;5090921;28;20486;-66
2021/07/05 12:31:56;;;;;;;2.50;1.50;;;19.30;99.70;;;;;;5090432;28;20450;-66
2021/07/05 12:34:59;;;;;;;2.00;1.50;;;19.30;99.70;;;;;;5103083;28;20444;-66
2021/07/05 12:37:32;;;;;;;2.83;1.50;;;19.60;99.70;;;;;;5024335;28;20451;-67
2021/07/05 12:40:03;;;;;;;2.03;1.40;;;19.70;99.70;;;;;;5026718;28;20930;-66
2021/07/05 12:42:35;;;;;;;5.37;1.67;;;19.80;99.70;;;;;;5067676;28;20493;-66
2021/07/05 12:45:09;;;;;;;2.43;1.30;;;19.90;99.70;;;;;;5108798;28;20441;-66
2021/07/05 12:47:54;;;;;;;1.90;1.30;;;20.10;99.70;;;;;;5109132;28;20444;-66
2021/07/05 12:50:26;;;;;;;3.23;1.60;;;20.20;99.70;;;;;;5107348;28;20463;-67
2021/07/05 12:53:14;;;;;;;1.93;1.40;;;20.20;99.70;;;;;;5109234;28;20444;-66
2021/07/05 12:55:58;;;;;;;3.40;1.37;;;20.40;99.70;;;;;;5106335;28;20429;-66
2021/07/05 12:58:47;;;;;;;1.70;1.50;;;20.50;99.70;;;;;;5108100;28;20459;-66
2021/07/05 13:01:15;;;;;;;2.33;1.60;;;20.70;99.70;;;;;;5105962;28;20453;-66
2021/07/05 13:03:58;;;;;;;2.23;1.40;;;20.80;99.70;;;;;;5108949;28;20475;-66